sensor_id;sensor_type;location;lat;lon;timestamp;pressure;altitude;pressure_sealevel;temperature;humidity
16834;BME280;8533;48.426;10.868;2022-11-15T00:01:17;96069.52;;;4.01;100.00
16834;BME280;8533;48.426;10.868;2022-11-15T00:03:44;96066.61;;;4.06;100.00
16834;BME280;8533;48.426;10.868;2022-11-15T00:06:12;96065.81;;;4.12;100.00
16834;BME280;8533;48.426;10.868;2022-11-15T00:08:39;96060.80;;;4.17;100.00
16834;BME280;8533;48.426;10.868;2022-11-15T00:11:09;96068.22;;;4.23;100.00
16834;BME280;8533;48.426;10.868;2022-11-15T00:13:37;96072.20;;;4.26;100.00
16834;BME280;8533;48.426;10.868;2022-11-15T00:16:05;96076.88;;;4.26;100.00
16834;BME280;8533;48.426;10.868;2022-11-15T00:18:32;96070.31;;;4.23;100.00
16834;BME280;8533;48.426;10.868;2022-11-15T00:21:05;96068.56;;;4.17;100.00
16834;BME280;8533;48.426;10.868;2022-11-15T00:23:33;96068.86;;;4.18;100.00
16834;BME280;8533;48.426;10.868;2022-11-15T00:26:01;96060.50;;;4.16;100.00
16834;BME280;8533;48.426;10.868;2022-11-15T00:28:29;96067.16;;;4.15;100.00
16834;BME280;8533;48.426;10.868;2022-11-15T00:31:05;96066.80;;;4.11;100.00
16834;BME280;8533;48.426;10.868;2022-11-15T00:33:33;96059.14;;;4.07;100.00
16834;BME280;8533;48.426;10.868;2022-11-15T00:36:03;96058.58;;;4.05;100.00
16834;BME280;8533;48.426;10.868;2022-11-15T00:38:32;96059.57;;;4.04;100.00
16834;BME280;8533;48.426;10.868;2022-11-15T00:41:01;96051.91;;;4.00;100.00
16834;BME280;8533;48.426;10.868;2022-11-15T00:43:29;96044.48;;;3.95;100.00
16834;BME280;8533;48.426;10.868;2022-11-15T00:45:57;96051.74;;;3.95;100.00
16834;BME280;8533;48.426;10.868;2022-11-15T00:48:24;96052.94;;;3.93;100.00
16834;BME280;8533;48.426;10.868;2022-11-15T00:50:52;96052.37;;;3.84;100.00
16834;BME280;8533;48.426;10.868;2022-11-15T00:53:19;96061.13;;;3.83;100.00
16834;BME280;8533;48.426;10.868;2022-11-15T00:55:47;96053.96;;;3.85;100.00
16834;BME280;8533;48.426;10.868;2022-11-15T00:58:16;96056.25;;;3.84;100.00
16834;BME280;8533;48.426;10.868;2022-11-15T01:00:43;96052.27;;;3.81;100.00
16834;BME280;8533;48.426;10.868;2022-11-15T01:03:11;96056.78;;;3.77;100.00
16834;BME280;8533;48.426;10.868;2022-11-15T01:05:38;96059.56;;;3.75;100.00
16834;BME280;8533;48.426;10.868;2022-11-15T01:08:06;96055.88;;;3.74;100.00
16834;BME280;8533;48.426;10.868;2022-11-15T01:10:33;96054.09;;;3.74;100.00
16834;BME280;8533;48.426;10.868;2022-11-15T01:13:01;96048.91;;;3.74;100.00
16834;BME280;8533;48.426;10.868;2022-11-15T01:15:28;96050.70;;;3.74;100.00
16834;BME280;8533;48.426;10.868;2022-11-15T01:17:56;96044.86;;;3.69;100.00
16834;BME280;8533;48.426;10.868;2022-11-15T01:20:23;96047.57;;;3.59;100.00
16834;BME280;8533;48.426;10.868;2022-11-15T01:22:50;96045.80;;;3.53;100.00
16834;BME280;8533;48.426;10.868;2022-11-15T01:25:18;96052.09;;;3.48;100.00
16834;BME280;8533;48.426;10.868;2022-11-15T01:27:45;96048.41;;;3.46;100.00
16834;BME280;8533;48.426;10.868;2022-11-15T01:30:13;96050.79;;;3.41;100.00
16834;BME280;8533;48.426;10.868;2022-11-15T01:32:40;96057.05;;;3.42;100.00
16834;BME280;8533;48.426;10.868;2022-11-15T01:35:08;96056.48;;;3.40;100.00
16834;BME280;8533;48.426;10.868;2022-11-15T01:37:35;96047.63;;;3.39;100.00
16834;BME280;8533;48.426;10.868;2022-11-15T01:40:03;96046.93;;;3.34;100.00
16834;BME280;8533;48.426;10.868;2022-11-15T01:42:30;96052.02;;;3.32;100.00
16834;BME280;8533;48.426;10.868;2022-11-15T01:44:58;96042.47;;;3.26;100.00
16834;BME280;8533;48.426;10.868;2022-11-15T01:47:33;96036.13;;;3.22;100.00
16834;BME280;8533;48.426;10.868;2022-11-15T01:49:59;96037.02;;;3.18;100.00
16834;BME280;8533;48.426;10.868;2022-11-15T01:52:28;96030.86;;;3.19;100.00
16834;BME280;8533;48.426;10.868;2022-11-15T01:55:03;96031.28;;;3.16;100.00
16834;BME280;8533;48.426;10.868;2022-11-15T01:57:30;96018.85;;;3.16;100.00
16834;BME280;8533;48.426;10.868;2022-11-15T01:59:59;96021.33;;;3.13;100.00
16834;BME280;8533;48.426;10.868;2022-11-15T02:02:27;96023.12;;;3.13;100.00
16834;BME280;8533;48.426;10.868;2022-11-15T02:04:55;96024.31;;;3.03;100.00
16834;BME280;8533;48.426;10.868;2022-11-15T02:07:23;96017.08;;;2.96;100.00
16834;BME280;8533;48.426;10.868;2022-11-15T02:09:51;96015.88;;;3.05;100.00
16834;BME280;8533;48.426;10.868;2022-11-15T02:12:20;96010.52;;;3.07;100.00
16834;BME280;8533;48.426;10.868;2022-11-15T02:14:51;96011.09;;;3.09;100.00
16834;BME280;8533;48.426;10.868;2022-11-15T02:17:45;96004.15;;;3.03;100.00
16834;BME280;8533;48.426;10.868;2022-11-15T02:20:39;96007.52;;;3.03;100.00
16834;BME280;8533;48.426;10.868;2022-11-15T02:25:45;96003.97;;;2.98;100.00
16834;BME280;8533;48.426;10.868;2022-11-15T02:30:50;96002.38;;;2.97;100.00
16834;BME280;8533;48.426;10.868;2022-11-15T02:33:26;95999.38;;;2.93;100.00
16834;BME280;8533;48.426;10.868;2022-11-15T02:35:57;95991.06;;;2.91;100.00
16834;BME280;8533;48.426;10.868;2022-11-15T02:38:47;95980.62;;;2.89;100.00
16834;BME280;8533;48.426;10.868;2022-11-15T02:41:20;95976.36;;;2.79;100.00
16834;BME280;8533;48.426;10.868;2022-11-15T02:43:49;95970.70;;;2.73;100.00
16834;BME280;8533;48.426;10.868;2022-11-15T02:48:55;95956.87;;;2.96;100.00
16834;BME280;8533;48.426;10.868;2022-11-15T02:51:23;95952.28;;;3.04;100.00
16834;BME280;8533;48.426;10.868;2022-11-15T02:53:50;95958.44;;;3.03;100.00
16834;BME280;8533;48.426;10.868;2022-11-15T02:56:18;95953.08;;;3.05;100.00
16834;BME280;8533;48.426;10.868;2022-11-15T02:59:12;95958.94;;;3.03;100.00
16834;BME280;8533;48.426;10.868;2022-11-15T03:02:02;95956.77;;;3.00;100.00
16834;BME280;8533;48.426;10.868;2022-11-15T03:04:43;95952.20;;;2.95;100.00
16834;BME280;8533;48.426;10.868;2022-11-15T03:09:49;95956.88;;;2.89;100.00
16834;BME280;8533;48.426;10.868;2022-11-15T03:12:19;95953.20;;;2.88;100.00
16834;BME280;8533;48.426;10.868;2022-11-15T03:15:09;95949.03;;;2.87;100.00
16834;BME280;8533;48.426;10.868;2022-11-15T03:17:52;95944.98;;;2.82;100.00
16834;BME280;8533;48.426;10.868;2022-11-15T03:19:57;95940.50;;;2.80;100.00
16834;BME280;8533;48.426;10.868;2022-11-15T03:22:23;95938.80;;;2.76;100.00
16834;BME280;8533;48.426;10.868;2022-11-15T03:24:53;95942.30;;;2.73;100.00
16834;BME280;8533;48.426;10.868;2022-11-15T03:27:25;95943.41;;;2.74;100.00
16834;BME280;8533;48.426;10.868;2022-11-15T03:30:00;95936.84;;;2.72;100.00
16834;BME280;8533;48.426;10.868;2022-11-15T03:32:29;95928.98;;;2.69;100.00
16834;BME280;8533;48.426;10.868;2022-11-15T03:35:11;95937.95;;;2.66;100.00
16834;BME280;8533;48.426;10.868;2022-11-15T03:37:35;95932.08;;;2.62;100.00
16834;BME280;8533;48.426;10.868;2022-11-15T03:40:04;95932.50;;;2.59;100.00
16834;BME280;8533;48.426;10.868;2022-11-15T03:42:43;95927.23;;;2.50;100.00
16834;BME280;8533;48.426;10.868;2022-11-15T03:45:14;95932.59;;;2.48;100.00
16834;BME280;8533;48.426;10.868;2022-11-15T03:47:59;95926.22;;;2.44;100.00
16834;BME280;8533;48.426;10.868;2022-11-15T03:50:27;95928.62;;;2.39;100.00
16834;BME280;8533;48.426;10.868;2022-11-15T03:52:56;95935.26;;;2.44;100.00
16834;BME280;8533;48.426;10.868;2022-11-15T03:55:24;95934.19;;;2.43;100.00
16834;BME280;8533;48.426;10.868;2022-11-15T03:57:55;95935.38;;;2.40;100.00
16834;BME280;8533;48.426;10.868;2022-11-15T04:00:23;95928.81;;;2.38;100.00
16834;BME280;8533;48.426;10.868;2022-11-15T04:02:50;95926.16;;;2.35;100.00
16834;BME280;8533;48.426;10.868;2022-11-15T04:05:18;95920.88;;;2.33;100.00
16834;BME280;8533;48.426;10.868;2022-11-15T04:07:45;95922.25;;;2.28;100.00
16834;BME280;8533;48.426;10.868;2022-11-15T04:10:13;95923.47;;;2.26;100.00
16834;BME280;8533;48.426;10.868;2022-11-15T04:12:43;95926.23;;;2.24;100.00
16834;BME280;8533;48.426;10.868;2022-11-15T04:15:14;95921.38;;;2.25;100.00
16834;BME280;8533;48.426;10.868;2022-11-15T04:17:50;95918.69;;;2.29;100.00
16834;BME280;8533;48.426;10.868;2022-11-15T04:20:18;95914.81;;;2.29;100.00
16834;BME280;8533;48.426;10.868;2022-11-15T04:23:04;95909.77;;;2.25;100.00
16834;BME280;8533;48.426;10.868;2022-11-15T04:25:52;95909.86;;;2.21;100.00
16834;BME280;8533;48.426;10.868;2022-11-15T04:28:20;95905.69;;;2.20;100.00
16834;BME280;8533;48.426;10.868;2022-11-15T04:30:48;95914.94;;;2.19;100.00
16834;BME280;8533;48.426;10.868;2022-11-15T04:33:15;95908.19;;;2.18;100.00
16834;BME280;8533;48.426;10.868;2022-11-15T04:35:43;95910.77;;;2.18;100.00
16834;BME280;8533;48.426;10.868;2022-11-15T04:38:12;95909.06;;;2.14;100.00
16834;BME280;8533;48.426;10.868;2022-11-15T04:40:39;95913.05;;;2.10;100.00
16834;BME280;8533;48.426;10.868;2022-11-15T04:43:07;95909.55;;;2.07;100.00
16834;BME280;8533;48.426;10.868;2022-11-15T04:45:34;95909.75;;;2.06;100.00
16834;BME280;8533;48.426;10.868;2022-11-15T04:48:02;95905.50;;;2.02;100.00
16834;BME280;8533;48.426;10.868;2022-11-15T04:50:29;95899.23;;;2.01;100.00
16834;BME280;8533;48.426;10.868;2022-11-15T04:52:56;95895.56;;;1.99;100.00
16834;BME280;8533;48.426;10.868;2022-11-15T04:55:24;95887.14;;;2.01;100.00
16834;BME280;8533;48.426;10.868;2022-11-15T04:58:03;95889.53;;;2.03;100.00
16834;BME280;8533;48.426;10.868;2022-11-15T05:00:27;95883.16;;;2.05;100.00
16834;BME280;8533;48.426;10.868;2022-11-15T05:02:56;95881.19;;;2.07;100.00
16834;BME280;8533;48.426;10.868;2022-11-15T05:05:41;95877.81;;;2.07;100.00
16834;BME280;8533;48.426;10.868;2022-11-15T05:08:09;95874.62;;;2.05;100.00
16834;BME280;8533;48.426;10.868;2022-11-15T05:10:36;95868.89;;;2.03;100.00
16834;BME280;8533;48.426;10.868;2022-11-15T05:13:04;95873.45;;;2.07;100.00
16834;BME280;8533;48.426;10.868;2022-11-15T05:15:31;95873.33;;;2.11;100.00
16834;BME280;8533;48.426;10.868;2022-11-15T05:17:59;95876.63;;;2.16;100.00
16834;BME280;8533;48.426;10.868;2022-11-15T05:20:27;95869.37;;;2.15;100.00
16834;BME280;8533;48.426;10.868;2022-11-15T05:22:54;95868.28;;;2.14;100.00
16834;BME280;8533;48.426;10.868;2022-11-15T05:25:22;95866.31;;;2.16;100.00
16834;BME280;8533;48.426;10.868;2022-11-15T05:27:50;95868.59;;;2.15;100.00
16834;BME280;8533;48.426;10.868;2022-11-15T05:30:17;95861.23;;;2.12;100.00
16834;BME280;8533;48.426;10.868;2022-11-15T05:32:45;95857.97;;;2.14;100.00
16834;BME280;8533;48.426;10.868;2022-11-15T05:35:25;95863.53;;;2.17;100.00
16834;BME280;8533;48.426;10.868;2022-11-15T05:37:46;95863.53;;;2.17;100.00
16834;BME280;8533;48.426;10.868;2022-11-15T05:40:15;95860.05;;;2.14;100.00
16834;BME280;8533;48.426;10.868;2022-11-15T05:42:42;95853.49;;;2.12;100.00
16834;BME280;8533;48.426;10.868;2022-11-15T05:45:10;95846.17;;;2.09;100.00
16834;BME280;8533;48.426;10.868;2022-11-15T05:47:39;95849.25;;;2.08;100.00
16834;BME280;8533;48.426;10.868;2022-11-15T05:50:08;95850.64;;;2.11;100.00
16834;BME280;8533;48.426;10.868;2022-11-15T05:52:37;95856.38;;;2.13;100.00
16834;BME280;8533;48.426;10.868;2022-11-15T05:55:06;95857.66;;;2.13;100.00
16834;BME280;8533;48.426;10.868;2022-11-15T05:57:34;95857.36;;;2.12;100.00
16834;BME280;8533;48.426;10.868;2022-11-15T06:00:03;95847.77;;;2.10;100.00
16834;BME280;8533;48.426;10.868;2022-11-15T06:02:31;95848.06;;;2.11;100.00
16834;BME280;8533;48.426;10.868;2022-11-15T06:04:58;95849.05;;;2.10;100.00
16834;BME280;8533;48.426;10.868;2022-11-15T06:07:28;95852.42;;;2.10;100.00
16834;BME280;8533;48.426;10.868;2022-11-15T06:09:55;95856.79;;;2.10;100.00
16834;BME280;8533;48.426;10.868;2022-11-15T06:12:23;95853.30;;;2.07;100.00
16834;BME280;8533;48.426;10.868;2022-11-15T06:14:50;95848.84;;;2.05;100.00
16834;BME280;8533;48.426;10.868;2022-11-15T06:17:18;95853.80;;;2.06;100.00
16834;BME280;8533;48.426;10.868;2022-11-15T06:19:45;95854.59;;;2.07;100.00
16834;BME280;8533;48.426;10.868;2022-11-15T06:22:12;95853.30;;;2.07;100.00
16834;BME280;8533;48.426;10.868;2022-11-15T06:24:40;95858.77;;;2.08;100.00
16834;BME280;8533;48.426;10.868;2022-11-15T06:27:07;95853.01;;;2.06;100.00
16834;BME280;8533;48.426;10.868;2022-11-15T06:29:35;95857.38;;;2.05;100.00
16834;BME280;8533;48.426;10.868;2022-11-15T06:32:02;95855.58;;;2.06;100.00
16834;BME280;8533;48.426;10.868;2022-11-15T06:34:29;95864.61;;;2.06;100.00
16834;BME280;8533;48.426;10.868;2022-11-15T06:36:57;95857.29;;;2.03;100.00
16834;BME280;8533;48.426;10.868;2022-11-15T06:39:24;95868.59;;;2.02;100.00
16834;BME280;8533;48.426;10.868;2022-11-15T06:41:52;95874.62;;;2.05;100.00
16834;BME280;8533;48.426;10.868;2022-11-15T06:44:19;95872.05;;;2.05;100.00
16834;BME280;8533;48.426;10.868;2022-11-15T06:46:46;95876.91;;;2.04;100.00
16834;BME280;8533;48.426;10.868;2022-11-15T06:49:14;95868.59;;;2.02;100.00
16834;BME280;8533;48.426;10.868;2022-11-15T06:51:41;95869.66;;;2.03;100.00
16834;BME280;8533;48.426;10.868;2022-11-15T06:54:09;95869.47;;;2.05;100.00
16834;BME280;8533;48.426;10.868;2022-11-15T06:56:36;95872.35;;;2.06;100.00
16834;BME280;8533;48.426;10.868;2022-11-15T06:59:03;95869.66;;;2.03;100.00
16834;BME280;8533;48.426;10.868;2022-11-15T07:01:31;95866.20;;;2.00;100.00
16834;BME280;8533;48.426;10.868;2022-11-15T07:03:58;95862.83;;;2.00;100.00
16834;BME280;8533;48.426;10.868;2022-11-15T07:06:26;95863.93;;;2.01;100.00
16834;BME280;8533;48.426;10.868;2022-11-15T07:08:53;95854.30;;;2.06;100.00
16834;BME280;8533;48.426;10.868;2022-11-15T07:11:21;95863.04;;;2.18;100.00
16834;BME280;8533;48.426;10.868;2022-11-15T07:13:48;95869.37;;;2.22;100.00
16834;BME280;8533;48.426;10.868;2022-11-15T07:16:15;95862.34;;;2.26;100.00
16834;BME280;8533;48.426;10.868;2022-11-15T07:18:43;95862.53;;;2.32;100.00
16834;BME280;8533;48.426;10.868;2022-11-15T07:21:10;95856.75;;;2.36;100.00
16834;BME280;8533;48.426;10.868;2022-11-15T07:23:39;95858.45;;;2.40;100.00
16834;BME280;8533;48.426;10.868;2022-11-15T07:26:07;95850.81;;;2.42;100.00
16834;BME280;8533;48.426;10.868;2022-11-15T07:28:35;95843.55;;;2.48;100.00
16834;BME280;8533;48.426;10.868;2022-11-15T07:31:05;95837.39;;;2.49;100.00
16834;BME280;8533;48.426;10.868;2022-11-15T07:33:33;95846.22;;;2.57;100.00
16834;BME280;8533;48.426;10.868;2022-11-15T07:36:01;95843.12;;;2.64;100.00
16834;BME280;8533;48.426;10.868;2022-11-15T07:38:29;95838.63;;;2.69;100.00
16834;BME280;8533;48.426;10.868;2022-11-15T07:40:58;95839.33;;;2.74;100.00
16834;BME280;8533;48.426;10.868;2022-11-15T07:43:26;95835.37;;;2.93;100.00
16834;BME280;8533;48.426;10.868;2022-11-15T07:45:58;95831.53;;;3.09;100.00
16834;BME280;8533;48.426;10.868;2022-11-15T07:48:26;95841.13;;;3.18;100.00
16834;BME280;8533;48.426;10.868;2022-11-15T07:50:54;95842.98;;;3.26;100.00
16834;BME280;8533;48.426;10.868;2022-11-15T07:53:21;95842.45;;;3.33;100.00
16834;BME280;8533;48.426;10.868;2022-11-15T07:55:48;95837.63;;;3.43;100.00
16834;BME280;8533;48.426;10.868;2022-11-15T07:58:16;95833.55;;;3.61;100.00
16834;BME280;8533;48.426;10.868;2022-11-15T08:00:44;95826.63;;;3.70;100.00
16834;BME280;8533;48.426;10.868;2022-11-15T08:03:13;95831.64;;;3.81;100.00
16834;BME280;8533;48.426;10.868;2022-11-15T08:05:42;95836.27;;;3.88;100.00
16834;BME280;8533;48.426;10.868;2022-11-15T08:08:11;95831.53;;;3.94;100.00
16834;BME280;8533;48.426;10.868;2022-11-15T08:10:38;95822.02;;;4.04;100.00
16834;BME280;8533;48.426;10.868;2022-11-15T08:13:10;95809.16;;;4.15;100.00
16834;BME280;8533;48.426;10.868;2022-11-15T08:15:38;95806.81;;;4.32;100.00
16834;BME280;8533;48.426;10.868;2022-11-15T08:18:11;95795.47;;;4.42;100.00
16834;BME280;8533;48.426;10.868;2022-11-15T08:20:39;95789.01;;;4.51;100.00
16834;BME280;8533;48.426;10.868;2022-11-15T08:23:09;95794.25;;;4.63;100.00
16834;BME280;8533;48.426;10.868;2022-11-15T08:25:37;95795.50;;;4.70;100.00
16834;BME280;8533;48.426;10.868;2022-11-15T08:28:10;95799.64;;;4.80;100.00
16834;BME280;8533;48.426;10.868;2022-11-15T08:30:39;95800.35;;;4.87;100.00
16834;BME280;8533;48.426;10.868;2022-11-15T08:33:10;95803.19;;;4.94;100.00
16834;BME280;8533;48.426;10.868;2022-11-15T08:35:39;95789.34;;;5.01;100.00
16834;BME280;8533;48.426;10.868;2022-11-15T08:38:07;95797.33;;;5.08;100.00
16834;BME280;8533;48.426;10.868;2022-11-15T08:40:34;95794.22;;;5.18;100.00
16834;BME280;8533;48.426;10.868;2022-11-15T08:43:02;95791.15;;;5.30;100.00
16834;BME280;8533;48.426;10.868;2022-11-15T08:45:31;95783.92;;;5.41;100.00
16834;BME280;8533;48.426;10.868;2022-11-15T08:48:02;95787.55;;;5.52;100.00
16834;BME280;8533;48.426;10.868;2022-11-15T08:50:30;95778.36;;;5.67;100.00
16834;BME280;8533;48.426;10.868;2022-11-15T08:52:59;95776.85;;;5.81;100.00
16834;BME280;8533;48.426;10.868;2022-11-15T08:55:26;95777.56;;;5.88;100.00
16834;BME280;8533;48.426;10.868;2022-11-15T08:57:56;95775.87;;;5.93;100.00
16834;BME280;8533;48.426;10.868;2022-11-15T09:00:23;95774.66;;;6.07;100.00
16834;BME280;8533;48.426;10.868;2022-11-15T09:02:50;95775.78;;;6.11;100.00
16834;BME280;8533;48.426;10.868;2022-11-15T09:05:18;95774.64;;;6.19;99.80
16834;BME280;8533;48.426;10.868;2022-11-15T09:07:45;95770.92;;;6.27;99.84
16834;BME280;8533;48.426;10.868;2022-11-15T09:10:13;95767.75;;;6.36;99.75
16834;BME280;8533;48.426;10.868;2022-11-15T09:12:40;95764.94;;;6.38;99.93
16834;BME280;8533;48.426;10.868;2022-11-15T09:15:08;95763.23;;;6.43;100.00
16834;BME280;8533;48.426;10.868;2022-11-15T09:17:36;95769.59;;;6.50;99.39
16834;BME280;8533;48.426;10.868;2022-11-15T09:20:03;95764.30;;;6.57;98.43
16834;BME280;8533;48.426;10.868;2022-11-15T09:22:31;95763.83;;;6.60;97.94
16834;BME280;8533;48.426;10.868;2022-11-15T09:24:58;95766.86;;;6.68;98.80
16834;BME280;8533;48.426;10.868;2022-11-15T09:27:29;95772.15;;;6.73;98.25
16834;BME280;8533;48.426;10.868;2022-11-15T09:29:57;95763.48;;;6.82;97.40
16834;BME280;8533;48.426;10.868;2022-11-15T09:32:27;95759.98;;;6.88;95.81
16834;BME280;8533;48.426;10.868;2022-11-15T09:34:53;95760.41;;;6.97;95.60
16834;BME280;8533;48.426;10.868;2022-11-15T09:37:20;95751.91;;;7.01;94.62
16834;BME280;8533;48.426;10.868;2022-11-15T09:39:48;95752.50;;;7.06;94.16
16834;BME280;8533;48.426;10.868;2022-11-15T09:45:23;95752.41;;;7.15;94.47
16834;BME280;8533;48.426;10.868;2022-11-15T09:50:50;95744.12;;;7.30;92.00
16834;BME280;8533;48.426;10.868;2022-11-15T09:56:32;95733.84;;;7.37;91.96
16834;BME280;8533;48.426;10.868;2022-11-15T10:04:29;95721.61;;;7.54;90.33
16834;BME280;8533;48.426;10.868;2022-11-15T10:07:14;95712.61;;;7.59;90.53
16834;BME280;8533;48.426;10.868;2022-11-15T10:09:37;95707.98;;;7.64;90.44
16834;BME280;8533;48.426;10.868;2022-11-15T10:12:02;95702.59;;;7.68;89.94
16834;BME280;8533;48.426;10.868;2022-11-15T10:14:31;95701.13;;;7.75;89.44
16834;BME280;8533;48.426;10.868;2022-11-15T10:17:09;95689.24;;;7.81;85.65
16834;BME280;8533;48.426;10.868;2022-11-15T10:25:13;95674.22;;;8.05;83.60
16834;BME280;8533;48.426;10.868;2022-11-15T10:27:26;95669.66;;;8.15;81.93
16834;BME280;8533;48.426;10.868;2022-11-15T10:29:53;95659.75;;;8.14;81.75
16834;BME280;8533;48.426;10.868;2022-11-15T10:32:21;95666.97;;;8.29;81.25
16834;BME280;8533;48.426;10.868;2022-11-15T10:34:50;95660.44;;;8.26;81.93
16834;BME280;8533;48.426;10.868;2022-11-15T10:37:29;95657.06;;;8.28;83.31
16834;BME280;8533;48.426;10.868;2022-11-15T10:40:05;95658.28;;;8.40;81.79
16834;BME280;8533;48.426;10.868;2022-11-15T10:42:33;95661.30;;;8.51;79.97
16834;BME280;8533;48.426;10.868;2022-11-15T10:45:00;95649.37;;;8.58;79.60
16834;BME280;8533;48.426;10.868;2022-11-15T10:47:30;95645.03;;;8.66;78.77
16834;BME280;8533;48.426;10.868;2022-11-15T10:50:05;95632.39;;;8.79;78.62
16834;BME280;8533;48.426;10.868;2022-11-15T10:52:34;95634.25;;;8.84;77.91
16834;BME280;8533;48.426;10.868;2022-11-15T10:55:19;95632.27;;;8.94;78.43
16834;BME280;8533;48.426;10.868;2022-11-15T10:57:38;95624.43;;;8.91;78.75
16834;BME280;8533;48.426;10.868;2022-11-15T11:05:27;95614.68;;;9.11;77.57
16834;BME280;8533;48.426;10.868;2022-11-15T11:10:54;95607.24;;;9.27;77.47
16834;BME280;8533;48.426;10.868;2022-11-15T11:13:22;95601.81;;;9.31;77.02
16834;BME280;8533;48.426;10.868;2022-11-15T11:15:58;95578.30;;;9.29;77.76
16834;BME280;8533;48.426;10.868;2022-11-15T11:18:34;95589.58;;;9.37;78.28
16834;BME280;8533;48.426;10.868;2022-11-15T11:20:58;95594.63;;;9.48;76.99
16834;BME280;8533;48.426;10.868;2022-11-15T11:23:52;95594.14;;;9.54;77.44
16834;BME280;8533;48.426;10.868;2022-11-15T11:26:42;95590.47;;;9.52;77.21
16834;BME280;8533;48.426;10.868;2022-11-15T11:29:47;95585.00;;;9.54;77.42
16834;BME280;8533;48.426;10.868;2022-11-15T11:31:57;95582.44;;;9.62;75.37
16834;BME280;8533;48.426;10.868;2022-11-15T11:34:49;95578.80;;;9.68;76.83
16834;BME280;8533;48.426;10.868;2022-11-15T11:40:19;95573.16;;;9.86;74.45
16834;BME280;8533;48.426;10.868;2022-11-15T11:42:52;95562.23;;;9.94;75.53
16834;BME280;8533;48.426;10.868;2022-11-15T11:45:27;95559.13;;;9.97;75.13
16834;BME280;8533;48.426;10.868;2022-11-15T11:50:37;95549.52;;;10.13;74.95
16834;BME280;8533;48.426;10.868;2022-11-15T11:53:24;95557.41;;;10.25;75.01
16834;BME280;8533;48.426;10.868;2022-11-15T11:55:51;95562.12;;;10.26;74.71
16834;BME280;8533;48.426;10.868;2022-11-15T11:58:27;95563.43;;;10.26;75.91
16834;BME280;8533;48.426;10.868;2022-11-15T12:00:55;95566.05;;;10.31;74.85
16834;BME280;8533;48.426;10.868;2022-11-15T12:06:04;95554.34;;;10.44;73.57
16834;BME280;8533;48.426;10.868;2022-11-15T12:08:50;95553.28;;;10.47;73.88
16834;BME280;8533;48.426;10.868;2022-11-15T12:11:35;95559.59;;;10.59;71.25
16834;BME280;8533;48.426;10.868;2022-11-15T12:14:01;95552.30;;;10.68;72.72
16834;BME280;8533;48.426;10.868;2022-11-15T12:16:31;95538.42;;;10.65;73.69
16834;BME280;8533;48.426;10.868;2022-11-15T12:19:02;95545.73;;;10.71;73.18
16834;BME280;8533;48.426;10.868;2022-11-15T12:24:21;95554.66;;;10.90;72.82
16834;BME280;8533;48.426;10.868;2022-11-15T12:27:40;95554.40;;;10.97;71.36
16834;BME280;8533;48.426;10.868;2022-11-15T12:29:37;95548.11;;;10.88;72.63
16834;BME280;8533;48.426;10.868;2022-11-15T12:32:00;95550.75;;;11.00;72.08
16834;BME280;8533;48.426;10.868;2022-11-15T12:34:42;95545.00;;;10.93;74.61
16834;BME280;8533;48.426;10.868;2022-11-15T12:43:02;95535.31;;;11.01;73.53
16834;BME280;8533;48.426;10.868;2022-11-15T12:45:32;95535.55;;;11.13;73.47
16834;BME280;8533;48.426;10.868;2022-11-15T12:50:54;95531.34;;;11.50;73.38
16834;BME280;8533;48.426;10.868;2022-11-15T12:58:57;95523.27;;;11.16;73.31
16834;BME280;8533;48.426;10.868;2022-11-15T13:04:08;95521.44;;;11.19;73.50
16834;BME280;8533;48.426;10.868;2022-11-15T13:06:40;95529.02;;;11.13;74.38
16834;BME280;8533;48.426;10.868;2022-11-15T13:11:59;95525.31;;;11.49;73.49
16834;BME280;8533;48.426;10.868;2022-11-15T13:14:45;95524.78;;;11.44;73.53
16834;BME280;8533;48.426;10.868;2022-11-15T13:17:38;95524.84;;;11.17;73.96
16834;BME280;8533;48.426;10.868;2022-11-15T13:22:51;95525.88;;;11.26;75.51
16834;BME280;8533;48.426;10.868;2022-11-15T13:27:51;95527.91;;;11.54;73.37
16834;BME280;8533;48.426;10.868;2022-11-15T13:30:26;95528.67;;;11.62;72.67
16834;BME280;8533;48.426;10.868;2022-11-15T13:32:57;95528.94;;;11.66;72.49
16834;BME280;8533;48.426;10.868;2022-11-15T13:35:28;95525.53;;;11.65;72.79
16834;BME280;8533;48.426;10.868;2022-11-15T13:37:56;95522.89;;;11.78;72.28
16834;BME280;8533;48.426;10.868;2022-11-15T13:40:34;95521.34;;;11.67;72.75
16834;BME280;8533;48.426;10.868;2022-11-15T13:42:59;95517.70;;;11.55;72.90
16834;BME280;8533;48.426;10.868;2022-11-15T13:45:26;95514.02;;;11.66;72.28
16834;BME280;8533;48.426;10.868;2022-11-15T13:47:58;95511.13;;;11.65;73.21
16834;BME280;8533;48.426;10.868;2022-11-15T13:50:28;95514.00;;;11.61;73.50
16834;BME280;8533;48.426;10.868;2022-11-15T13:52:58;95514.29;;;11.55;74.10
16834;BME280;8533;48.426;10.868;2022-11-15T13:55:27;95512.73;;;11.46;74.88
16834;BME280;8533;48.426;10.868;2022-11-15T13:57:58;95511.98;;;11.33;75.45
16834;BME280;8533;48.426;10.868;2022-11-15T14:03:14;95512.81;;;11.11;76.87
16834;BME280;8533;48.426;10.868;2022-11-15T14:05:38;95511.22;;;10.97;77.60
16834;BME280;8533;48.426;10.868;2022-11-15T14:10:45;95503.13;;;10.68;78.39
16834;BME280;8533;48.426;10.868;2022-11-15T14:13:29;95504.13;;;10.54;78.33
16834;BME280;8533;48.426;10.868;2022-11-15T14:18:48;95502.55;;;10.36;79.76
16834;BME280;8533;48.426;10.868;2022-11-15T14:21:17;95500.98;;;10.29;80.46
16834;BME280;8533;48.426;10.868;2022-11-15T14:23:45;95497.80;;;10.22;80.77
16834;BME280;8533;48.426;10.868;2022-11-15T14:26:34;95505.13;;;10.18;81.30
16834;BME280;8533;48.426;10.868;2022-11-15T14:29:24;95503.78;;;10.13;82.08
16834;BME280;8533;48.426;10.868;2022-11-15T14:32:05;95504.52;;;10.06;82.66
16834;BME280;8533;48.426;10.868;2022-11-15T14:34:23;95506.61;;;10.01;82.63
16834;BME280;8533;48.426;10.868;2022-11-15T14:36:51;95500.08;;;9.96;83.36
16834;BME280;8533;48.426;10.868;2022-11-15T14:39:18;95500.84;;;9.94;83.30
16834;BME280;8533;48.426;10.868;2022-11-15T14:41:45;95501.34;;;9.91;83.15